Time;durP1;ratioP1;P1;durP2;ratioP2;P2;SDS_P1;SDS_P2;PMS_P1;PMS_P2;Temp;Humidity;BMP_temperature;BMP_pressure;BME280_temperature;BME280_humidity;BME280_pressure;Samples;Min_cycle;Max_cycle;Signal;HPM_P1;HPM_P2
2023/02/17 00:00:34;;;;;;;36.10;17.33;;;10.50;99.90;;;;;;5008854;28;20213;-66
2023/02/17 00:03:01;;;;;;;50.30;23.17;;;10.50;99.90;;;;;;5008855;28;20233;-66
2023/02/17 00:05:28;;;;;;;42.43;20.07;;;10.50;99.90;;;;;;5007258;28;20212;-66
2023/02/17 00:07:57;;;;;;;31.23;15.83;;;10.40;99.90;;;;;;5026801;28;20188;-66
2023/02/17 00:10:27;;;;;;;40.70;19.80;;;10.40;99.90;;;;;;5026375;28;20200;-66
2023/02/17 00:12:54;;;;;;;44.50;21.20;;;10.40;99.90;;;;;;5009604;28;20202;-66
2023/02/17 00:15:22;;;;;;;35.67;16.90;;;10.40;99.90;;;;;;5026521;28;20202;-66
2023/02/17 00:17:49;;;;;;;54.87;25.33;;;10.40;99.90;;;;;;5026229;28;20218;-66
2023/02/17 00:20:16;;;;;;;45.27;20.37;;;10.40;99.90;;;;;;5011012;28;20223;-66
2023/02/17 00:22:43;;;;;;;36.87;18.37;;;10.40;99.90;;;;;;5026800;28;20199;-66
2023/02/17 00:25:11;;;;;;;39.93;18.77;;;10.30;99.90;;;;;;5007835;28;20202;-66
2023/02/17 00:27:38;;;;;;;33.83;16.73;;;10.30;99.90;;;;;;5024958;28;20194;-66
2023/02/17 00:30:08;;;;;;;34.43;17.43;;;10.30;99.90;;;;;;5026318;28;20192;-67
2023/02/17 00:32:36;;;;;;;38.40;17.53;;;10.40;99.90;;;;;;5025279;28;20195;-67
2023/02/17 00:35:03;;;;;;;37.17;16.67;;;10.30;99.90;;;;;;5024266;28;20190;-67
2023/02/17 00:37:30;;;;;;;36.63;17.03;;;10.30;99.90;;;;;;5026121;28;20202;-67
2023/02/17 00:39:57;;;;;;;43.07;19.57;;;10.30;99.90;;;;;;5008658;28;20306;-67
2023/02/17 00:42:26;;;;;;;41.80;19.83;;;10.30;99.90;;;;;;5009251;28;20268;-68
2023/02/17 00:44:53;;;;;;;38.93;18.63;;;10.30;99.90;;;;;;5010609;28;20237;-67
2023/02/17 00:47:20;;;;;;;35.37;16.37;;;10.30;99.90;;;;;;5025446;28;20202;-67
2023/02/17 00:49:47;;;;;;;36.30;17.07;;;10.30;99.90;;;;;;5024944;28;20628;-67
2023/02/17 00:52:14;;;;;;;30.70;16.10;;;10.30;99.90;;;;;;5025338;28;20561;-67
2023/02/17 00:54:42;;;;;;;41.17;20.30;;;10.30;99.90;;;;;;5025454;28;20201;-66
2023/02/17 00:57:10;;;;;;;39.07;18.97;;;10.30;99.90;;;;;;5013583;28;20543;-67
2023/02/17 00:59:38;;;;;;;34.07;18.30;;;10.20;99.90;;;;;;5016462;28;20220;-67
2023/02/17 01:02:08;;;;;;;29.63;15.30;;;10.20;99.90;;;;;;5008443;28;20222;-67
2023/02/17 01:04:36;;;;;;;27.83;14.80;;;10.20;99.90;;;;;;5012278;28;20267;-67
2023/02/17 01:07:06;;;;;;;23.00;12.73;;;10.20;99.90;;;;;;5028685;28;20203;-67
2023/02/17 01:09:33;;;;;;;16.73;9.80;;;10.20;99.90;;;;;;5013395;28;20212;-67
2023/02/17 01:12:01;;;;;;;22.83;11.47;;;10.20;99.90;;;;;;5011412;28;20197;-67
2023/02/17 01:14:28;;;;;;;18.53;10.87;;;10.30;99.90;;;;;;5011048;28;20209;-67
2023/02/17 01:16:57;;;;;;;24.33;12.53;;;10.30;99.90;;;;;;5010529;28;20660;-67
2023/02/17 01:19:24;;;;;;;21.63;10.60;;;10.30;99.90;;;;;;5009071;28;20214;-67
2023/02/17 01:21:52;;;;;;;18.03;9.60;;;10.30;99.90;;;;;;5028731;28;20208;-67
2023/02/17 01:24:19;;;;;;;29.00;14.73;;;10.30;99.90;;;;;;5008368;28;20879;-68
2023/02/17 01:26:46;;;;;;;19.60;10.70;;;10.30;99.90;;;;;;5028579;28;20521;-67
2023/02/17 01:29:13;;;;;;;21.17;10.90;;;10.30;99.90;;;;;;5010378;28;20209;-67
2023/02/17 01:31:41;;;;;;;17.17;9.90;;;10.30;99.90;;;;;;5026334;28;20214;-67
2023/02/17 01:34:13;;;;;;;27.67;13.27;;;10.40;99.90;;;;;;5011272;28;20220;-67
2023/02/17 01:36:40;;;;;;;26.43;14.50;;;10.40;99.90;;;;;;5026322;28;20196;-67
2023/02/17 01:39:12;;;;;;;21.27;12.17;;;10.40;99.90;;;;;;5010594;28;20696;-67
2023/02/17 01:41:40;;;;;;;16.03;9.40;;;10.40;99.90;;;;;;5028398;28;20194;-67
2023/02/17 01:44:10;;;;;;;28.50;14.77;;;10.40;99.90;;;;;;5011863;28;20560;-67
2023/02/17 01:46:39;;;;;;;23.40;12.37;;;10.40;99.90;;;;;;5010142;28;20770;-67
2023/02/17 01:49:28;;;;;;;20.07;10.90;;;10.30;99.90;;;;;;5010406;28;20229;-67
2023/02/17 01:52:03;;;;;;;21.00;11.33;;;10.30;99.90;;;;;;5028317;28;20187;-67
2023/02/17 01:54:35;;;;;;;14.83;8.47;;;10.30;99.90;;;;;;5028041;28;20209;-67
2023/02/17 01:57:03;;;;;;;12.43;8.00;;;10.30;99.90;;;;;;5026803;28;20537;-67
2023/02/17 01:59:31;;;;;;;10.13;6.43;;;10.30;99.90;;;;;;5028097;28;20622;-67
2023/02/17 02:02:02;;;;;;;8.07;5.43;;;10.40;99.90;;;;;;5026480;28;20200;-68
2023/02/17 02:04:33;;;;;;;23.07;11.43;;;10.40;99.90;;;;;;5010357;28;20258;-67
2023/02/17 02:07:06;;;;;;;21.57;12.03;;;10.40;99.90;;;;;;5031096;28;20206;-67
2023/02/17 02:09:37;;;;;;;18.37;10.53;;;10.40;99.90;;;;;;5009746;28;20187;-68
2023/02/17 02:12:17;;;;;;;22.83;12.27;;;10.40;99.90;;;;;;5009229;28;20206;-67
2023/02/17 02:14:45;;;;;;;16.73;9.50;;;10.40;99.90;;;;;;5026431;28;20648;-68
2023/02/17 02:17:17;;;;;;;13.93;8.83;;;10.40;99.90;;;;;;5027938;28;20202;-67
2023/02/17 02:20:11;;;;;;;17.07;9.90;;;10.40;99.90;;;;;;5009699;28;20210;-67
2023/02/17 02:23:14;;;;;;;13.80;8.47;;;10.40;99.90;;;;;;5004191;28;20226;-68
2023/02/17 02:26:18;;;;;;;18.03;10.63;;;10.40;99.90;;;;;;5026336;28;20194;-67
2023/02/17 02:28:59;;;;;;;17.90;10.80;;;10.40;99.90;;;;;;5007255;28;20688;-67
2023/02/17 02:31:39;;;;;;;10.57;7.30;;;10.40;99.90;;;;;;5027048;28;20662;-67
2023/02/17 02:34:12;;;;;;;14.87;9.07;;;10.40;99.90;;;;;;5027829;28;20269;-68
2023/02/17 02:36:46;;;;;;;18.03;10.70;;;10.40;99.90;;;;;;5009700;28;20649;-67
2023/02/17 02:39:17;;;;;;;16.57;9.67;;;10.40;99.90;;;;;;5024850;28;20218;-67
2023/02/17 02:41:49;;;;;;;13.13;8.70;;;10.40;99.90;;;;;;5009813;28;20212;-67
2023/02/17 02:44:19;;;;;;;13.33;7.87;;;10.40;99.90;;;;;;5025790;28;20303;-67
2023/02/17 02:46:55;;;;;;;11.93;8.13;;;10.40;99.90;;;;;;5010311;28;20203;-67
2023/02/17 02:49:24;;;;;;;20.50;11.53;;;10.40;99.90;;;;;;5010539;28;20197;-67
2023/02/17 02:51:59;;;;;;;19.67;10.03;;;10.40;99.90;;;;;;5027321;28;20203;-68
2023/02/17 02:54:41;;;;;;;15.63;9.23;;;10.40;99.90;;;;;;5027439;28;20710;-67
2023/02/17 02:57:24;;;;;;;10.97;7.10;;;10.40;99.90;;;;;;5027651;28;20200;-66
2023/02/17 03:00:04;;;;;;;14.57;9.00;;;10.40;99.90;;;;;;5011932;28;20429;-66
2023/02/17 03:02:41;;;;;;;19.30;11.67;;;10.40;99.90;;;;;;5026490;28;20670;-68
2023/02/17 03:05:13;;;;;;;18.77;10.97;;;10.40;99.90;;;;;;5022196;28;20202;-67
2023/02/17 03:07:47;;;;;;;14.27;9.07;;;10.40;99.90;;;;;;5011052;28;20228;-66
2023/02/17 03:10:15;;;;;;;19.60;11.43;;;10.30;99.90;;;;;;5026929;28;20198;-66
2023/02/17 03:12:42;;;;;;;14.93;9.00;;;10.30;99.90;;;;;;5009228;28;20661;-66
2023/02/17 03:15:16;;;;;;;21.80;12.10;;;10.30;99.90;;;;;;5024797;28;20204;-67
2023/02/17 03:17:43;;;;;;;19.40;11.27;;;10.40;99.90;;;;;;5008178;28;20200;-67
2023/02/17 03:20:14;;;;;;;12.97;8.27;;;10.30;99.90;;;;;;5026189;28;20642;-66
2023/02/17 03:22:45;;;;;;;14.73;8.73;;;10.30;99.90;;;;;;5010996;28;20642;-66
2023/02/17 03:25:14;;;;;;;14.90;9.03;;;10.30;99.90;;;;;;5023328;28;20194;-67
2023/02/17 03:27:43;;;;;;;11.40;7.13;;;10.30;99.90;;;;;;5009412;28;20289;-67
2023/02/17 03:30:11;;;;;;;9.50;6.80;;;10.30;99.90;;;;;;5009341;28;20197;-67
2023/02/17 03:32:39;;;;;;;16.43;10.17;;;10.30;99.90;;;;;;5022759;28;20203;-67
2023/02/17 03:35:06;;;;;;;11.50;7.73;;;10.30;99.90;;;;;;5009296;28;20660;-67
2023/02/17 03:37:35;;;;;;;11.10;7.23;;;10.40;99.90;;;;;;5007078;28;20201;-66
2023/02/17 03:40:02;;;;;;;10.27;6.83;;;10.40;99.90;;;;;;5008550;28;20215;-67
2023/02/17 03:42:29;;;;;;;18.53;11.47;;;10.40;99.90;;;;;;5027341;28;20566;-67
2023/02/17 03:44:56;;;;;;;18.40;10.83;;;10.40;99.90;;;;;;5025960;28;20237;-67
2023/02/17 03:47:24;;;;;;;14.43;8.80;;;10.40;99.90;;;;;;5007779;28;20312;-67
2023/02/17 03:49:51;;;;;;;17.57;10.97;;;10.30;99.90;;;;;;5006759;28;20340;-66
2023/02/17 03:52:18;;;;;;;15.03;8.87;;;10.40;99.90;;;;;;5023466;28;20688;-66
2023/02/17 03:54:46;;;;;;;10.50;6.90;;;10.30;99.90;;;;;;5008265;28;20199;-66
2023/02/17 03:57:13;;;;;;;16.47;10.27;;;10.40;99.90;;;;;;5026727;28;20201;-67
2023/02/17 03:59:41;;;;;;;19.23;11.47;;;10.40;99.90;;;;;;5025868;28;20214;-66
2023/02/17 04:02:08;;;;;;;21.00;12.93;;;10.30;99.90;;;;;;5005643;28;20214;-67
2023/02/17 04:04:35;;;;;;;24.23;13.13;;;10.30;99.90;;;;;;5026437;28;20197;-66
2023/02/17 04:07:02;;;;;;;23.40;14.03;;;10.30;99.90;;;;;;5025432;28;20714;-66
2023/02/17 04:09:29;;;;;;;22.63;13.13;;;10.30;99.90;;;;;;5026723;28;20191;-69
2023/02/17 04:11:57;;;;;;;25.40;14.07;;;10.20;99.90;;;;;;5026415;28;20265;-66
2023/02/17 04:14:25;;;;;;;22.50;13.50;;;10.20;99.90;;;;;;5026368;28;20292;-66
2023/02/17 04:16:52;;;;;;;15.90;9.63;;;10.20;99.90;;;;;;5008527;28;20194;-65
2023/02/17 04:19:19;;;;;;;18.40;11.40;;;10.20;99.90;;;;;;5009567;28;20740;-66
2023/02/17 04:21:46;;;;;;;18.67;11.27;;;10.20;99.90;;;;;;5010892;28;20207;-66
2023/02/17 04:24:13;;;;;;;25.93;14.27;;;10.20;99.90;;;;;;5026924;28;20247;-66
2023/02/17 04:26:40;;;;;;;22.03;13.67;;;10.20;99.90;;;;;;5026187;28;20207;-67
2023/02/17 04:29:08;;;;;;;21.37;11.90;;;10.20;99.90;;;;;;5028702;28;20207;-67
2023/02/17 04:31:36;;;;;;;23.10;12.70;;;10.20;99.90;;;;;;5028169;28;20225;-67
2023/02/17 04:34:03;;;;;;;24.27;13.17;;;10.20;99.90;;;;;;5029895;28;20202;-67
2023/02/17 04:36:30;;;;;;;16.50;10.53;;;10.20;99.90;;;;;;5029390;28;20315;-67
2023/02/17 04:38:57;;;;;;;15.47;9.47;;;10.20;99.90;;;;;;5030677;28;20209;-66
2023/02/17 04:41:24;;;;;;;11.80;7.60;;;10.20;99.90;;;;;;5029578;28;20217;-66
2023/02/17 04:43:51;;;;;;;10.33;7.37;;;10.20;99.90;;;;;;5029848;28;20525;-67
2023/02/17 04:46:20;;;;;;;9.50;6.30;;;10.20;99.90;;;;;;5014496;28;20316;-66
2023/02/17 04:48:47;;;;;;;17.60;9.80;;;10.20;99.90;;;;;;5027725;28;20263;-66
2023/02/17 04:51:14;;;;;;;15.93;9.17;;;10.20;99.90;;;;;;5029616;28;20197;-66
2023/02/17 04:53:41;;;;;;;18.47;10.53;;;10.20;99.90;;;;;;5030364;28;20197;-66
2023/02/17 04:56:08;;;;;;;19.47;10.30;;;10.20;99.90;;;;;;5029600;28;20201;-66
2023/02/17 04:58:35;;;;;;;17.00;9.90;;;10.20;99.90;;;;;;5029552;28;20195;-66
2023/02/17 05:01:02;;;;;;;13.70;7.77;;;10.20;99.90;;;;;;5029196;28;20233;-66
2023/02/17 05:03:33;;;;;;;21.93;11.73;;;10.20;99.90;;;;;;5010344;28;20288;-66
2023/02/17 05:06:00;;;;;;;30.33;16.80;;;10.20;99.90;;;;;;5028017;28;20204;-66
2023/02/17 05:08:27;;;;;;;26.70;14.73;;;10.20;99.90;;;;;;5029881;28;20675;-66
2023/02/17 05:10:54;;;;;;;33.80;18.03;;;10.20;99.90;;;;;;5029462;28;20638;-67
2023/02/17 05:13:21;;;;;;;26.40;14.07;;;10.20;99.90;;;;;;5012853;28;20548;-67
2023/02/17 05:15:48;;;;;;;30.67;16.03;;;10.20;99.90;;;;;;5013081;28;20194;-67
2023/02/17 05:18:15;;;;;;;30.17;15.73;;;10.20;99.90;;;;;;5028500;28;20197;-67
2023/02/17 05:20:44;;;;;;;24.77;14.50;;;10.10;99.90;;;;;;5011353;28;20563;-67
2023/02/17 05:23:11;;;;;;;24.93;13.40;;;10.20;99.90;;;;;;5012119;28;20203;-67
2023/02/17 05:25:39;;;;;;;19.13;11.67;;;10.10;99.90;;;;;;5029850;28;20198;-68
2023/02/17 05:28:06;;;;;;;31.20;15.93;;;10.10;99.90;;;;;;5010044;28;20208;-67
2023/02/17 05:30:34;;;;;;;39.23;19.53;;;10.10;99.90;;;;;;5029393;28;20194;-67
2023/02/17 05:33:01;;;;;;;34.30;15.73;;;10.10;99.90;;;;;;5028077;28;20642;-67
2023/02/17 05:35:28;;;;;;;24.20;12.47;;;10.10;99.90;;;;;;5026947;28;20205;-67
2023/02/17 05:37:56;;;;;;;25.17;12.97;;;10.10;99.90;;;;;;5029297;28;20217;-67
2023/02/17 05:40:24;;;;;;;22.43;11.77;;;10.10;99.90;;;;;;5027788;28;20222;-67
2023/02/17 05:42:51;;;;;;;17.87;9.90;;;10.10;99.90;;;;;;5029035;28;20201;-67
2023/02/17 05:45:18;;;;;;;21.90;11.53;;;10.10;99.90;;;;;;5028992;28;20234;-67
2023/02/17 05:47:45;;;;;;;29.97;15.00;;;10.10;99.90;;;;;;5026920;28;20202;-68
2023/02/17 05:50:13;;;;;;;32.53;16.87;;;10.10;99.90;;;;;;5010563;28;20280;-67
2023/02/17 05:52:40;;;;;;;36.83;18.63;;;10.10;99.90;;;;;;5028932;28;20272;-68
2023/02/17 05:55:09;;;;;;;25.33;14.23;;;10.10;99.90;;;;;;5028468;28;20304;-67
2023/02/17 05:57:36;;;;;;;31.93;15.43;;;10.10;99.90;;;;;;5028951;28;20723;-66
2023/02/17 06:00:04;;;;;;;32.77;17.53;;;10.00;99.90;;;;;;5010676;28;20219;-67
2023/02/17 06:02:39;;;;;;;36.87;18.07;;;10.00;99.90;;;;;;5027151;28;20196;-67
2023/02/17 06:05:07;;;;;;;35.27;18.03;;;10.00;99.90;;;;;;5010097;28;20555;-67
2023/02/17 06:07:34;;;;;;;32.10;17.03;;;10.00;99.90;;;;;;5028218;28;20196;-67
2023/02/17 06:10:01;;;;;;;24.40;13.33;;;10.00;99.90;;;;;;5010647;28;20202;-67
2023/02/17 06:12:30;;;;;;;30.87;15.77;;;10.00;99.90;;;;;;5012661;28;20204;-67
2023/02/17 06:14:57;;;;;;;28.47;14.73;;;9.90;99.90;;;;;;5027992;28;20213;-67
2023/02/17 06:17:24;;;;;;;29.37;16.37;;;10.00;99.90;;;;;;5027636;28;20201;-66
2023/02/17 06:19:51;;;;;;;34.77;19.27;;;10.00;99.90;;;;;;5027316;28;20191;-66
2023/02/17 06:22:18;;;;;;;38.63;19.60;;;10.00;99.90;;;;;;5012676;28;20264;-67
2023/02/17 06:24:45;;;;;;;34.93;17.93;;;9.90;99.90;;;;;;5012220;28;20206;-67
2023/02/17 06:27:12;;;;;;;28.33;14.83;;;9.90;99.90;;;;;;5026707;28;20202;-67
2023/02/17 06:29:41;;;;;;;28.20;15.50;;;9.90;99.90;;;;;;5027631;28;20201;-67
2023/02/17 06:32:08;;;;;;;24.43;13.23;;;9.90;99.90;;;;;;5024750;28;20321;-66
2023/02/17 06:34:35;;;;;;;28.07;15.53;;;9.90;99.90;;;;;;5010734;28;20201;-66
2023/02/17 06:37:02;;;;;;;28.77;15.60;;;9.90;99.90;;;;;;5027532;28;20248;-67
2023/02/17 06:39:29;;;;;;;26.20;14.83;;;9.90;99.90;;;;;;5011586;28;20716;-67
2023/02/17 06:41:56;;;;;;;22.43;13.43;;;9.90;99.90;;;;;;5011944;28;20727;-67
2023/02/17 06:44:24;;;;;;;21.63;13.23;;;9.80;99.90;;;;;;5010235;28;20256;-67
2023/02/17 06:46:52;;;;;;;15.97;10.03;;;9.90;99.90;;;;;;5027303;28;20197;-67
2023/02/17 06:49:19;;;;;;;21.93;13.20;;;9.90;99.90;;;;;;5027613;28;20198;-66
2023/02/17 06:51:46;;;;;;;20.53;12.33;;;9.90;99.90;;;;;;5026676;28;20185;-68
2023/02/17 06:54:14;;;;;;;17.07;9.87;;;9.90;99.90;;;;;;5028012;28;20227;-67
2023/02/17 06:56:41;;;;;;;14.30;9.50;;;9.90;99.90;;;;;;5010876;28;20205;-67
2023/02/17 06:59:08;;;;;;;21.17;12.40;;;10.00;99.90;;;;;;5027863;28;20209;-66
2023/02/17 07:01:35;;;;;;;14.20;8.87;;;10.00;99.90;;;;;;5027657;28;20225;-67
2023/02/17 07:04:04;;;;;;;23.07;13.20;;;10.00;99.90;;;;;;5019377;28;20285;-66
2023/02/17 07:06:32;;;;;;;20.00;11.73;;;10.00;99.90;;;;;;5005455;28;20206;-67
2023/02/17 07:09:00;;;;;;;29.07;15.07;;;10.00;99.90;;;;;;5023818;28;20202;-67
2023/02/17 07:11:30;;;;;;;25.03;14.27;;;10.00;99.90;;;;;;5023151;28;20198;-66
2023/02/17 07:13:57;;;;;;;20.73;12.53;;;10.00;99.90;;;;;;5025010;28;20209;-67
2023/02/17 07:16:24;;;;;;;32.00;15.83;;;10.00;99.90;;;;;;5010201;28;20290;-67
2023/02/17 07:18:52;;;;;;;29.70;16.40;;;10.00;99.90;;;;;;5021184;28;20702;-67
2023/02/17 07:21:20;;;;;;;26.67;14.43;;;10.00;99.90;;;;;;5023769;28;20229;-67
2023/02/17 07:23:47;;;;;;;28.13;15.20;;;10.00;99.90;;;;;;5024954;28;20198;-67
2023/02/17 07:26:15;;;;;;;22.17;12.77;;;10.00;99.90;;;;;;5009004;28;20220;-66
2023/02/17 07:28:43;;;;;;;21.90;11.43;;;10.00;99.90;;;;;;5006009;28;20213;-66
2023/02/17 07:31:11;;;;;;;21.23;12.00;;;10.00;99.90;;;;;;5007574;28;20234;-67
2023/02/17 07:33:39;;;;;;;21.00;11.77;;;10.00;99.90;;;;;;5024860;28;20290;-67
2023/02/17 07:36:07;;;;;;;18.67;10.23;;;10.00;99.90;;;;;;5022515;28;20190;-67
2023/02/17 07:38:36;;;;;;;14.30;8.77;;;10.00;99.90;;;;;;5023428;28;20194;-67
2023/02/17 07:41:07;;;;;;;13.37;8.20;;;10.10;99.90;;;;;;5023146;28;20732;-67
2023/02/17 07:43:35;;;;;;;18.93;10.53;;;10.10;99.90;;;;;;5025338;28;20225;-67
2023/02/17 07:46:04;;;;;;;21.27;12.37;;;10.10;99.90;;;;;;5010016;28;20261;-68
2023/02/17 07:48:32;;;;;;;15.73;9.60;;;10.10;99.90;;;;;;5024486;28;20187;-67
2023/02/17 07:51:05;;;;;;;11.70;7.77;;;10.10;99.90;;;;;;5018141;28;20194;-68
2023/02/17 07:53:32;;;;;;;12.53;7.87;;;10.10;99.90;;;;;;5024522;28;20745;-67
2023/02/17 07:56:02;;;;;;;11.07;7.30;;;10.10;99.90;;;;;;5023113;28;20656;-67
2023/02/17 07:58:31;;;;;;;15.47;9.60;;;10.10;99.90;;;;;;5022202;28;20193;-67
2023/02/17 08:00:58;;;;;;;19.37;11.20;;;10.10;99.90;;;;;;5024462;28;20238;-67
2023/02/17 08:03:25;;;;;;;17.87;11.00;;;10.10;99.90;;;;;;5006151;28;20198;-67
2023/02/17 08:05:52;;;;;;;18.97;10.83;;;10.10;99.90;;;;;;5024794;28;20194;-66
2023/02/17 08:14:01;;;;;;;19.20;11.03;;;10.10;99.90;;;;;;4966984;28;20204;-67
2023/02/17 08:16:28;;;;;;;22.60;12.80;;;10.10;99.90;;;;;;5010365;28;20217;-67
2023/02/17 08:18:56;;;;;;;16.03;9.87;;;10.10;99.90;;;;;;5025876;28;20566;-67
2023/02/17 08:21:23;;;;;;;15.73;9.73;;;10.00;99.90;;;;;;5007537;28;20575;-67
2023/02/17 08:23:51;;;;;;;10.53;7.53;;;10.10;99.90;;;;;;5010557;28;20273;-67
2023/02/17 08:26:20;;;;;;;18.73;11.50;;;10.10;99.90;;;;;;5010967;28;20206;-66
2023/02/17 08:28:48;;;;;;;17.40;10.23;;;10.10;99.90;;;;;;5007492;28;20233;-67
2023/02/17 08:31:16;;;;;;;19.87;10.53;;;10.10;99.90;;;;;;5025780;28;20219;-67
2023/02/17 08:33:43;;;;;;;17.83;10.43;;;10.10;99.90;;;;;;5019298;28;20271;-67
2023/02/17 08:36:11;;;;;;;19.70;11.33;;;10.10;99.90;;;;;;5025769;28;20191;-67
2023/02/17 08:38:38;;;;;;;15.30;9.23;;;10.10;99.90;;;;;;5027842;28;20564;-68
2023/02/17 08:41:13;;;;;;;20.70;11.57;;;10.10;99.90;;;;;;5009237;28;20218;-67
2023/02/17 08:43:43;;;;;;;20.73;11.33;;;10.10;99.90;;;;;;5026880;28;20253;-67
2023/02/17 08:46:13;;;;;;;16.53;9.60;;;10.10;99.90;;;;;;5011132;28;20248;-67
2023/02/17 08:48:41;;;;;;;19.70;10.90;;;10.10;99.90;;;;;;5024754;28;20555;-67
2023/02/17 08:51:08;;;;;;;19.03;11.00;;;10.10;99.90;;;;;;5013496;28;20194;-67
2023/02/17 08:53:35;;;;;;;14.77;9.30;;;10.10;99.90;;;;;;5026954;28;20209;-68
2023/02/17 08:56:02;;;;;;;19.00;10.50;;;10.20;99.90;;;;;;5027278;28;20468;-67
2023/02/17 08:58:29;;;;;;;16.77;10.17;;;10.20;99.90;;;;;;5009337;28;20202;-67
2023/02/17 09:01:01;;;;;;;15.53;9.67;;;10.20;99.90;;;;;;5027650;28;20221;-66
2023/02/17 09:03:29;;;;;;;23.20;12.57;;;10.20;99.90;;;;;;5024532;28;20610;-67
2023/02/17 09:05:56;;;;;;;23.83;13.30;;;10.20;99.90;;;;;;5024604;28;20199;-67
2023/02/17 09:08:24;;;;;;;22.73;13.33;;;10.10;99.90;;;;;;5027086;28;20562;-67
2023/02/17 09:10:51;;;;;;;22.60;12.23;;;9.10;99.90;;;;;;5026062;28;20597;-66
2023/02/17 09:13:19;;;;;;;20.00;11.20;;;10.10;99.90;;;;;;5023990;28;20206;-66
2023/02/17 09:15:48;;;;;;;20.27;12.17;;;10.10;99.90;;;;;;5025182;28;20687;-67
2023/02/17 09:18:16;;;;;;;26.20;14.63;;;10.10;99.90;;;;;;5026634;28;20220;-68
2023/02/17 09:20:43;;;;;;;24.90;13.87;;;10.00;99.90;;;;;;5026185;28;20201;-67
2023/02/17 09:23:11;;;;;;;22.43;13.13;;;10.00;99.90;;;;;;5006965;28;20319;-66
2023/02/17 09:25:38;;;;;;;25.23;14.13;;;10.00;99.90;;;;;;5023032;28;20202;-67
2023/02/17 09:28:05;;;;;;;22.93;13.13;;;10.00;99.90;;;;;;5026410;28;20662;-66
2023/02/17 09:30:33;;;;;;;25.60;14.37;;;9.90;99.90;;;;;;5010520;28;20197;-67
2023/02/17 09:33:00;;;;;;;23.00;13.80;;;9.90;99.90;;;;;;5024968;28;20265;-67
2023/02/17 09:35:29;;;;;;;25.33;14.27;;;9.90;99.90;;;;;;5025843;28;20210;-67
2023/02/17 09:37:56;;;;;;;22.60;12.97;;;9.90;99.90;;;;;;5024271;28;20202;-68
2023/02/17 09:40:29;;;;;;;19.27;11.37;;;9.90;99.90;;;;;;5010646;28;20766;-66
2023/02/17 09:42:57;;;;;;;22.90;13.33;;;9.90;99.90;;;;;;5021520;28;20289;-67
2023/02/17 09:45:27;;;;;;;25.93;14.13;;;10.00;99.90;;;;;;5026871;28;20239;-66
2023/02/17 09:47:59;;;;;;;30.10;17.00;;;10.00;99.90;;;;;;5024472;28;20224;-67
2023/02/17 09:50:32;;;;;;;31.30;16.97;;;10.00;99.90;;;;;;5026264;28;20193;-68
2023/02/17 09:53:06;;;;;;;27.47;15.30;;;10.00;99.90;;;;;;5026610;28;20275;-67
2023/02/17 09:55:38;;;;;;;35.10;17.77;;;9.90;99.90;;;;;;5026412;28;20255;-67
2023/02/17 09:58:09;;;;;;;32.90;16.90;;;10.00;99.90;;;;;;5026462;28;20240;-67
2023/02/17 10:00:42;;;;;;;25.87;14.77;;;9.90;99.90;;;;;;5026317;28;20188;-67
2023/02/17 10:03:15;;;;;;;26.80;15.30;;;9.90;99.90;;;;;;5007057;28;20218;-66
2023/02/17 10:05:51;;;;;;;26.97;15.03;;;9.90;99.90;;;;;;5007183;28;20238;-68
2023/02/17 10:08:22;;;;;;;33.13;16.13;;;9.90;99.90;;;;;;5025076;28;20212;-68
2023/02/17 10:10:54;;;;;;;29.77;16.27;;;9.90;99.90;;;;;;5023660;28;20193;-67
2023/02/17 10:13:23;;;;;;;25.73;14.80;;;9.90;99.90;;;;;;5026778;28;20212;-67
2023/02/17 10:15:53;;;;;;;23.03;13.53;;;9.90;99.90;;;;;;5006949;28;20205;-67
2023/02/17 10:18:30;;;;;;;24.10;13.90;;;9.90;99.90;;;;;;5024516;28;20193;-68
2023/02/17 10:21:06;;;;;;;32.07;17.53;;;9.90;99.90;;;;;;5023431;28;20217;-67
2023/02/17 10:23:34;;;;;;;24.77;13.80;;;10.00;99.90;;;;;;5007824;28;20194;-67
2023/02/17 10:26:12;;;;;;;25.03;14.57;;;10.00;99.90;;;;;;5024391;28;20254;-67
2023/02/17 10:28:50;;;;;;;30.30;16.37;;;10.00;99.90;;;;;;5024565;28;20205;-67
2023/02/17 10:31:34;;;;;;;31.07;16.67;;;10.00;99.90;;;;;;5022852;28;20198;-67
2023/02/17 10:34:03;;;;;;;28.87;15.30;;;10.00;99.90;;;;;;5004652;28;20320;-67
2023/02/17 10:36:43;;;;;;;25.87;15.57;;;10.00;99.90;;;;;;5004739;28;20248;-67
2023/02/17 10:39:14;;;;;;;31.37;16.43;;;9.90;99.90;;;;;;5005776;28;20206;-67
2023/02/17 10:41:46;;;;;;;24.40;13.67;;;9.90;99.90;;;;;;5024827;28;20974;-67
2023/02/17 10:44:19;;;;;;;31.37;16.87;;;9.90;99.90;;;;;;5025183;28;20236;-68
2023/02/17 10:46:47;;;;;;;30.63;16.37;;;9.90;99.90;;;;;;5008479;28;20274;-68
2023/02/17 10:49:20;;;;;;;36.97;18.20;;;9.90;99.90;;;;;;5024594;28;20637;-68
2023/02/17 10:51:48;;;;;;;34.70;17.67;;;9.90;99.90;;;;;;5023333;28;20624;-67
2023/02/17 10:54:28;;;;;;;28.17;15.23;;;9.90;99.90;;;;;;5023143;28;20564;-67
2023/02/17 10:56:58;;;;;;;26.93;14.70;;;9.90;99.90;;;;;;5024442;28;20251;-67
2023/02/17 10:59:31;;;;;;;30.70;16.00;;;9.90;99.90;;;;;;5023640;28;20203;-67
2023/02/17 11:02:12;;;;;;;31.27;16.73;;;9.90;99.90;;;;;;5010293;28;20221;-67
2023/02/17 11:04:41;;;;;;;29.77;15.83;;;9.90;99.90;;;;;;5022609;28;20207;-68
2023/02/17 11:07:15;;;;;;;22.87;13.23;;;10.00;99.90;;;;;;5001944;28;20673;-67
2023/02/17 11:09:47;;;;;;;32.83;16.47;;;10.00;99.90;;;;;;5004799;28;20213;-67
2023/02/17 11:12:17;;;;;;;25.57;13.97;;;10.00;99.90;;;;;;5008277;28;20197;-67
2023/02/17 11:14:46;;;;;;;23.93;12.63;;;10.00;99.90;;;;;;5005366;28;20656;-68
2023/02/17 11:17:21;;;;;;;19.43;12.07;;;10.00;99.90;;;;;;5021218;28;20277;-68
2023/02/17 11:19:58;;;;;;;21.80;12.13;;;10.00;99.90;;;;;;5022674;28;20662;-67
2023/02/17 11:22:35;;;;;;;15.60;9.83;;;10.00;99.90;;;;;;5010072;28;20210;-68
2023/02/17 11:25:08;;;;;;;24.13;13.97;;;10.00;99.90;;;;;;5023410;28;20274;-68
2023/02/17 11:27:35;;;;;;;25.77;14.57;;;10.10;99.90;;;;;;5024490;28;20276;-67
2023/02/17 11:30:15;;;;;;;24.57;13.30;;;10.00;99.90;;;;;;5003465;28;20198;-67
2023/02/17 11:32:42;;;;;;;19.73;12.17;;;10.00;99.90;;;;;;5024738;28;20194;-67
2023/02/17 11:35:24;;;;;;;18.17;10.40;;;10.00;99.90;;;;;;5008764;28;20690;-66
2023/02/17 11:38:00;;;;;;;18.93;11.43;;;10.10;99.90;;;;;;5008219;28;20206;-66
2023/02/17 11:40:29;;;;;;;16.93;10.93;;;10.10;99.90;;;;;;5007992;28;20576;-67
2023/02/17 11:42:58;;;;;;;21.93;11.67;;;10.10;99.90;;;;;;5023071;28;20302;-67
2023/02/17 11:45:27;;;;;;;19.53;11.60;;;10.10;99.90;;;;;;5008190;28;20692;-67
2023/02/17 11:48:11;;;;;;;22.17;12.17;;;10.10;99.90;;;;;;5008336;28;20506;-67
2023/02/17 11:50:48;;;;;;;20.90;11.23;;;10.10;99.90;;;;;;5024660;28;20312;-67
2023/02/17 11:53:26;;;;;;;21.50;11.90;;;10.10;99.90;;;;;;5025464;28;20228;-68
2023/02/17 11:56:05;;;;;;;21.33;12.80;;;10.10;99.90;;;;;;5022279;28;20192;-67
2023/02/17 11:58:45;;;;;;;18.27;10.60;;;10.10;99.90;;;;;;5024487;28;20260;-66
2023/02/17 12:01:27;;;;;;;17.73;10.50;;;10.10;99.90;;;;;;5023882;28;20565;-67
2023/02/17 12:04:22;;;;;;;15.87;9.43;;;10.10;99.90;;;;;;5001309;28;20213;-67
2023/02/17 12:07:07;;;;;;;18.17;10.67;;;10.10;99.90;;;;;;5005184;28;20240;-67
2023/02/17 12:09:45;;;;;;;21.13;12.23;;;10.10;99.90;;;;;;5023249;28;20286;-67
2023/02/17 12:12:18;;;;;;;16.77;10.30;;;10.10;99.90;;;;;;5022312;28;20622;-67
2023/02/17 12:15:08;;;;;;;16.00;9.07;;;10.10;99.90;;;;;;5024301;28;20189;-67
2023/02/17 12:17:46;;;;;;;17.73;10.23;;;10.10;99.90;;;;;;5023178;28;20213;-67
2023/02/17 12:20:34;;;;;;;19.63;10.90;;;10.10;99.90;;;;;;5021894;28;20204;-67
2023/02/17 12:23:16;;;;;;;19.10;9.63;;;10.10;99.90;;;;;;5024516;28;20207;-67
2023/02/17 12:25:50;;;;;;;15.80;9.37;;;10.10;99.90;;;;;;5023524;28;20287;-67
2023/02/17 12:28:46;;;;;;;16.63;10.30;;;10.00;99.90;;;;;;5005343;28;20205;-68
2023/02/17 12:31:24;;;;;;;16.23;10.33;;;10.00;99.90;;;;;;5002882;28;20202;-67
2023/02/17 12:34:02;;;;;;;19.83;11.57;;;10.00;99.90;;;;;;5003960;28;20198;-67
2023/02/17 12:36:33;;;;;;;17.90;10.37;;;10.00;99.90;;;;;;5024119;28;20187;-67
2023/02/17 12:39:04;;;;;;;15.17;9.37;;;10.00;99.90;;;;;;5024014;28;20197;-67
2023/02/17 12:41:38;;;;;;;14.00;9.17;;;10.00;99.90;;;;;;5022551;28;20311;-68
2023/02/17 12:44:10;;;;;;;16.13;10.20;;;10.00;99.90;;;;;;5023135;28;20699;-67
2023/02/17 12:46:41;;;;;;;15.97;10.00;;;10.00;99.90;;;;;;5004565;28;20289;-67
2023/02/17 12:49:17;;;;;;;14.83;9.00;;;10.00;99.90;;;;;;5004046;28;20657;-67
2023/02/17 12:51:49;;;;;;;12.40;7.60;;;10.00;99.90;;;;;;5027264;28;20188;-67